sensor_id;sensor_type;location;lat;lon;timestamp;pressure;altitude;pressure_sealevel;temperature;humidity
41246;BME280;53880;47.526;18.986;2023-04-09T00:00:13;100345.38;;;20.52;44.99
41246;BME280;53880;47.526;18.986;2023-04-09T00:02:48;100343.66;;;20.51;45.06
41246;BME280;53880;47.526;18.986;2023-04-09T00:05:04;100349.19;;;20.50;45.31
41246;BME280;53880;47.526;18.986;2023-04-09T00:07:21;100353.00;;;20.47;45.22
41246;BME280;53880;47.526;18.986;2023-04-09T00:09:39;100346.94;;;20.45;45.45
41246;BME280;53880;47.526;18.986;2023-04-09T00:11:59;100352.59;;;20.42;45.20
41246;BME280;53880;47.526;18.986;2023-04-09T00:14:24;100349.22;;;20.40;45.40
41246;BME280;53880;47.526;18.986;2023-04-09T00:16:46;100348.53;;;20.38;45.34
41246;BME280;53880;47.526;18.986;2023-04-09T00:19:02;100344.19;;;20.37;45.21
41246;BME280;53880;47.526;18.986;2023-04-09T00:21:22;100348.00;;;20.35;45.38
41246;BME280;53880;47.526;18.986;2023-04-09T00:23:42;100353.50;;;20.33;45.37
41246;BME280;53880;47.526;18.986;2023-04-09T00:25:57;100350.97;;;20.32;45.34
41246;BME280;53880;47.526;18.986;2023-04-09T00:28:15;100347.59;;;20.30;45.41
41246;BME280;53880;47.526;18.986;2023-04-09T00:30:31;100348.72;;;20.27;45.52
41246;BME280;53880;47.526;18.986;2023-04-09T00:32:49;100347.06;;;20.26;45.33
41246;BME280;53880;47.526;18.986;2023-04-09T00:35:07;100349.03;;;20.24;45.50
41246;BME280;53880;47.526;18.986;2023-04-09T00:37:28;100350.19;;;20.22;45.47
41246;BME280;53880;47.526;18.986;2023-04-09T00:39:43;100343.97;;;20.21;45.56
41246;BME280;53880;47.526;18.986;2023-04-09T00:42:06;100341.59;;;20.18;45.26
41246;BME280;53880;47.526;18.986;2023-04-09T00:44:24;100347.06;;;20.17;45.30
41246;BME280;53880;47.526;18.986;2023-04-09T00:46:42;100352.41;;;20.17;45.52
41246;BME280;53880;47.526;18.986;2023-04-09T00:48:59;100340.91;;;20.16;45.35
41246;BME280;53880;47.526;18.986;2023-04-09T00:51:17;100343.69;;;20.15;45.53
41246;BME280;53880;47.526;18.986;2023-04-09T00:53:34;100345.00;;;20.11;45.39
41246;BME280;53880;47.526;18.986;2023-04-09T00:55:55;100342.47;;;20.09;45.40
41246;BME280;53880;47.526;18.986;2023-04-09T00:58:13;100340.78;;;20.08;45.40
41246;BME280;53880;47.526;18.986;2023-04-09T01:00:35;100339.09;;;20.07;45.51
41246;BME280;53880;47.526;18.986;2023-04-09T01:02:50;100347.13;;;20.07;45.32
41246;BME280;53880;47.526;18.986;2023-04-09T01:05:10;100345.44;;;20.06;45.43
41246;BME280;53880;47.526;18.986;2023-04-09T01:15:21;100338.00;;;20.00;45.31
41246;BME280;53880;47.526;18.986;2023-04-09T01:18:08;100337.16;;;20.00;45.53
41246;BME280;53880;47.526;18.986;2023-04-09T01:20:40;100341.66;;;19.99;45.49
41246;BME280;53880;47.526;18.986;2023-04-09T01:23:18;100346.31;;;19.97;45.56
41246;BME280;53880;47.526;18.986;2023-04-09T01:28:15;100336.91;;;19.93;45.32
41246;BME280;53880;47.526;18.986;2023-04-09T01:30:39;100338.59;;;19.94;45.52
41246;BME280;53880;47.526;18.986;2023-04-09T01:32:57;100339.56;;;19.93;45.29
41246;BME280;53880;47.526;18.986;2023-04-09T01:35:13;100338.03;;;19.91;45.52
41246;BME280;53880;47.526;18.986;2023-04-09T01:37:34;100335.50;;;19.89;45.54
41246;BME280;53880;47.526;18.986;2023-04-09T01:39:54;100334.81;;;19.87;45.39
41246;BME280;53880;47.526;18.986;2023-04-09T01:42:13;100340.16;;;19.87;45.37
41246;BME280;53880;47.526;18.986;2023-04-09T01:44:32;100337.78;;;19.84;45.37
41246;BME280;53880;47.526;18.986;2023-04-09T01:46:50;100342.41;;;19.82;45.53
41246;BME280;53880;47.526;18.986;2023-04-09T01:49:06;100337.22;;;19.81;45.37
41246;BME280;53880;47.526;18.986;2023-04-09T01:51:27;100344.72;;;19.77;45.43
41246;BME280;53880;47.526;18.986;2023-04-09T01:53:48;100343.72;;;19.78;45.44
41246;BME280;53880;47.526;18.986;2023-04-09T01:56:06;100341.34;;;19.75;45.61
41246;BME280;53880;47.526;18.986;2023-04-09T01:58:30;100345.69;;;19.76;45.44
41246;BME280;53880;47.526;18.986;2023-04-09T02:00:48;100342.47;;;19.72;45.34
41246;BME280;53880;47.526;18.986;2023-04-09T02:03:12;100339.97;;;19.71;45.64
41246;BME280;53880;47.526;18.986;2023-04-09T02:05:40;100346.28;;;19.70;45.53
41246;BME280;53880;47.526;18.986;2023-04-09T02:08:02;100345.56;;;19.68;45.68
41246;BME280;53880;47.526;18.986;2023-04-09T02:10:26;100340.22;;;19.68;45.75
41246;BME280;53880;47.526;18.986;2023-04-09T02:12:51;100346.56;;;19.67;45.63
41246;BME280;53880;47.526;18.986;2023-04-09T02:15:10;100336.88;;;19.66;45.46
41246;BME280;53880;47.526;18.986;2023-04-09T02:17:36;100340.50;;;19.65;45.62
41246;BME280;53880;47.526;18.986;2023-04-09T02:19:55;100338.69;;;19.65;45.57
41246;BME280;53880;47.526;18.986;2023-04-09T02:22:15;100337.00;;;19.64;45.42
41246;BME280;53880;47.526;18.986;2023-04-09T02:24:36;100335.31;;;19.63;45.48
41246;BME280;53880;47.526;18.986;2023-04-09T02:26:56;100332.66;;;19.63;45.47
41246;BME280;53880;47.526;18.986;2023-04-09T02:29:11;100337.28;;;19.61;45.61
41246;BME280;53880;47.526;18.986;2023-04-09T02:31:31;100333.78;;;19.61;45.59
41246;BME280;53880;47.526;18.986;2023-04-09T02:33:51;100331.94;;;19.61;45.50
41246;BME280;53880;47.526;18.986;2023-04-09T02:36:13;100339.28;;;19.59;45.46
41246;BME280;53880;47.526;18.986;2023-04-09T02:38:28;100326.19;;;19.56;45.60
41246;BME280;53880;47.526;18.986;2023-04-09T02:40:45;100335.91;;;19.57;45.52
41246;BME280;53880;47.526;18.986;2023-04-09T02:43:06;100334.91;;;19.58;45.60
41246;BME280;53880;47.526;18.986;2023-04-09T02:45:26;100336.88;;;19.56;45.47
41246;BME280;53880;47.526;18.986;2023-04-09T02:47:41;100327.19;;;19.55;45.63
41246;BME280;53880;47.526;18.986;2023-04-09T02:49:56;100335.31;;;19.54;45.41
41246;BME280;53880;47.526;18.986;2023-04-09T02:52:17;100338.00;;;19.54;45.74
41246;BME280;53880;47.526;18.986;2023-04-09T02:54:36;100334.50;;;19.53;45.49
41246;BME280;53880;47.526;18.986;2023-04-09T02:56:54;100333.81;;;19.51;45.55
41246;BME280;53880;47.526;18.986;2023-04-09T02:59:14;100329.44;;;19.50;45.85
41246;BME280;53880;47.526;18.986;2023-04-09T03:01:36;100333.94;;;19.50;45.81
41246;BME280;53880;47.526;18.986;2023-04-09T03:03:53;100333.13;;;19.49;45.75
41246;BME280;53880;47.526;18.986;2023-04-09T03:06:11;100329.59;;;19.49;45.52
41246;BME280;53880;47.526;18.986;2023-04-09T03:08:31;100343.94;;;19.48;45.50
41246;BME280;53880;47.526;18.986;2023-04-09T03:10:48;100343.22;;;19.46;45.70
41246;BME280;53880;47.526;18.986;2023-04-09T03:13:10;100338.03;;;19.44;45.79
41246;BME280;53880;47.526;18.986;2023-04-09T03:15:28;100339.88;;;19.44;45.75
41246;BME280;53880;47.526;18.986;2023-04-09T03:17:48;100339.16;;;19.42;45.81
41246;BME280;53880;47.526;18.986;2023-04-09T03:20:07;100336.50;;;19.42;45.66
41246;BME280;53880;47.526;18.986;2023-04-09T03:22:27;100338.31;;;19.41;45.62
41246;BME280;53880;47.526;18.986;2023-04-09T03:24:44;100332.28;;;19.39;45.62
41246;BME280;53880;47.526;18.986;2023-04-09T03:27:02;100334.25;;;19.37;45.87
41246;BME280;53880;47.526;18.986;2023-04-09T03:29:18;100331.56;;;19.37;45.57
41246;BME280;53880;47.526;18.986;2023-04-09T03:31:39;100328.22;;;19.35;45.87
41246;BME280;53880;47.526;18.986;2023-04-09T03:34:01;100329.91;;;19.36;45.76
41246;BME280;53880;47.526;18.986;2023-04-09T03:36:20;100332.81;;;19.33;45.64
41246;BME280;53880;47.526;18.986;2023-04-09T03:38:44;100339.28;;;19.31;45.66
41246;BME280;53880;47.526;18.986;2023-04-09T03:41:15;100338.59;;;19.29;45.90
41246;BME280;53880;47.526;18.986;2023-04-09T03:43:32;100340.28;;;19.30;45.88
41246;BME280;53880;47.526;18.986;2023-04-09T03:45:52;100339.44;;;19.29;45.74
41246;BME280;53880;47.526;18.986;2023-04-09T03:48:16;100343.94;;;19.29;45.72
41246;BME280;53880;47.526;18.986;2023-04-09T03:50:37;100342.13;;;19.29;45.85
41246;BME280;53880;47.526;18.986;2023-04-09T03:52:52;100345.75;;;19.28;45.68
41246;BME280;53880;47.526;18.986;2023-04-09T03:55:08;100344.94;;;19.28;45.77
41246;BME280;53880;47.526;18.986;2023-04-09T03:57:26;100341.41;;;19.27;45.71
41246;BME280;53880;47.526;18.986;2023-04-09T03:59:45;100342.38;;;19.26;45.90
41246;BME280;53880;47.526;18.986;2023-04-09T04:02:04;100348.84;;;19.24;45.64
41246;BME280;53880;47.526;18.986;2023-04-09T04:04:25;100357.59;;;19.26;45.66
41246;BME280;53880;47.526;18.986;2023-04-09T04:06:43;100361.38;;;19.23;45.84
41246;BME280;53880;47.526;18.986;2023-04-09T04:09:21;100354.19;;;19.24;45.96
41246;BME280;53880;47.526;18.986;2023-04-09T04:11:45;100349.84;;;19.23;45.97
41246;BME280;53880;47.526;18.986;2023-04-09T04:14:00;100351.66;;;19.22;45.90
41246;BME280;53880;47.526;18.986;2023-04-09T04:16:17;100356.88;;;19.24;45.88
41246;BME280;53880;47.526;18.986;2023-04-09T04:18:35;100357.88;;;19.23;45.77
41246;BME280;53880;47.526;18.986;2023-04-09T04:20:53;100351.66;;;19.22;45.80
41246;BME280;53880;47.526;18.986;2023-04-09T04:23:11;100358.00;;;19.21;45.80
41246;BME280;53880;47.526;18.986;2023-04-09T04:25:33;100358.97;;;19.20;45.77
41246;BME280;53880;47.526;18.986;2023-04-09T04:27:56;100349.31;;;19.19;45.95
41246;BME280;53880;47.526;18.986;2023-04-09T04:30:20;100360.97;;;19.18;45.73
41246;BME280;53880;47.526;18.986;2023-04-09T04:32:49;100358.44;;;19.17;46.02
41246;BME280;53880;47.526;18.986;2023-04-09T04:35:04;100365.59;;;19.16;45.72
41246;BME280;53880;47.526;18.986;2023-04-09T04:37:20;100366.56;;;19.15;45.92
41246;BME280;53880;47.526;18.986;2023-04-09T04:39:42;100372.06;;;19.14;45.74
41246;BME280;53880;47.526;18.986;2023-04-09T04:42:07;100366.03;;;19.12;45.96
41246;BME280;53880;47.526;18.986;2023-04-09T04:44:29;100372.34;;;19.11;45.90
41246;BME280;53880;47.526;18.986;2023-04-09T04:46:53;100374.19;;;19.10;45.73
41246;BME280;53880;47.526;18.986;2023-04-09T04:49:13;100376.84;;;19.10;45.95
41246;BME280;53880;47.526;18.986;2023-04-09T04:51:37;100376.97;;;19.09;45.96
41246;BME280;53880;47.526;18.986;2023-04-09T04:53:56;100379.78;;;19.07;45.95
41246;BME280;53880;47.526;18.986;2023-04-09T04:56:14;100380.63;;;19.08;45.89
41246;BME280;53880;47.526;18.986;2023-04-09T04:58:47;100372.78;;;19.06;45.90
41246;BME280;53880;47.526;18.986;2023-04-09T05:01:04;100379.94;;;19.06;45.83
41246;BME280;53880;47.526;18.986;2023-04-09T05:03:23;100377.28;;;19.06;45.84
41246;BME280;53880;47.526;18.986;2023-04-09T05:05:49;100381.50;;;19.08;46.21
41246;BME280;53880;47.526;18.986;2023-04-09T05:08:06;100381.34;;;19.10;46.12
41246;BME280;53880;47.526;18.986;2023-04-09T05:10:26;100383.59;;;19.14;45.85
41246;BME280;53880;47.526;18.986;2023-04-09T05:12:41;100383.03;;;19.20;45.86
41246;BME280;53880;47.526;18.986;2023-04-09T05:15:01;100384.00;;;19.29;45.48
41246;BME280;53880;47.526;18.986;2023-04-09T05:17:19;100382.50;;;19.36;45.37
41246;BME280;53880;47.526;18.986;2023-04-09T05:19:34;100378.97;;;19.45;45.19
41246;BME280;53880;47.526;18.986;2023-04-09T05:21:53;100375.41;;;19.54;44.98
41246;BME280;53880;47.526;18.986;2023-04-09T05:24:10;100378.09;;;19.63;45.20
41246;BME280;53880;47.526;18.986;2023-04-09T05:26:32;100375.53;;;19.71;44.83
41246;BME280;53880;47.526;18.986;2023-04-09T05:28:48;100381.84;;;19.80;44.61
41246;BME280;53880;47.526;18.986;2023-04-09T05:31:08;100386.47;;;19.88;44.57
41246;BME280;53880;47.526;18.986;2023-04-09T05:33:31;100386.41;;;19.97;44.74
41246;BME280;53880;47.526;18.986;2023-04-09T05:35:57;100392.88;;;20.04;44.38
41246;BME280;53880;47.526;18.986;2023-04-09T05:38:17;100394.00;;;20.11;44.58
41246;BME280;53880;47.526;18.986;2023-04-09T05:40:42;100386.38;;;20.16;44.52
41246;BME280;53880;47.526;18.986;2023-04-09T05:43:02;100390.16;;;20.23;44.16
41246;BME280;53880;47.526;18.986;2023-04-09T05:45:28;100390.41;;;20.30;44.25
41246;BME280;53880;47.526;18.986;2023-04-09T05:47:46;100393.50;;;20.35;44.20
41246;BME280;53880;47.526;18.986;2023-04-09T05:50:09;100385.88;;;20.40;44.26
41246;BME280;53880;47.526;18.986;2023-04-09T05:52:29;100392.59;;;20.44;44.13
41246;BME280;53880;47.526;18.986;2023-04-09T05:54:48;100391.31;;;20.48;44.12
41246;BME280;53880;47.526;18.986;2023-04-09T05:57:10;100390.88;;;20.52;44.37
41246;BME280;53880;47.526;18.986;2023-04-09T05:59:31;100394.94;;;20.57;44.24
41246;BME280;53880;47.526;18.986;2023-04-09T06:01:51;100399.97;;;20.60;44.25
41246;BME280;53880;47.526;18.986;2023-04-09T06:04:06;100402.34;;;20.63;43.96
41246;BME280;53880;47.526;18.986;2023-04-09T06:06:24;100401.22;;;20.65;44.20
41246;BME280;53880;47.526;18.986;2023-04-09T06:08:41;100404.44;;;20.69;44.12
41246;BME280;53880;47.526;18.986;2023-04-09T06:11:01;100409.50;;;20.72;44.18
41246;BME280;53880;47.526;18.986;2023-04-09T06:13:19;100406.50;;;20.75;43.98
41246;BME280;53880;47.526;18.986;2023-04-09T06:15:39;100409.88;;;20.77;44.04
41246;BME280;53880;47.526;18.986;2023-04-09T06:17:59;100399.88;;;20.79;43.99
41246;BME280;53880;47.526;18.986;2023-04-09T06:20:15;100401.38;;;20.81;44.14
41246;BME280;53880;47.526;18.986;2023-04-09T06:22:35;100406.44;;;20.84;43.89
41246;BME280;53880;47.526;18.986;2023-04-09T06:24:52;100399.09;;;20.86;43.98
41246;BME280;53880;47.526;18.986;2023-04-09T06:27:07;100403.31;;;20.89;43.75
41246;BME280;53880;47.526;18.986;2023-04-09T06:29:25;100404.84;;;20.91;43.96
41246;BME280;53880;47.526;18.986;2023-04-09T06:31:43;100409.19;;;20.92;44.04
41246;BME280;53880;47.526;18.986;2023-04-09T06:33:58;100404.25;;;20.97;43.97
41246;BME280;53880;47.526;18.986;2023-04-09T06:36:13;100412.13;;;20.99;44.05
41246;BME280;53880;47.526;18.986;2023-04-09T06:38:33;100408.28;;;21.01;43.94
41246;BME280;53880;47.526;18.986;2023-04-09T06:40:48;100404.63;;;21.02;43.94
41246;BME280;53880;47.526;18.986;2023-04-09T06:43:06;100400.00;;;21.04;43.89
41246;BME280;53880;47.526;18.986;2023-04-09T06:45:30;100405.88;;;21.08;43.94
41246;BME280;53880;47.526;18.986;2023-04-09T06:47:50;100399.38;;;21.10;43.95
41246;BME280;53880;47.526;18.986;2023-04-09T06:50:10;100401.06;;;21.11;43.90
41246;BME280;53880;47.526;18.986;2023-04-09T06:52:28;100405.25;;;21.14;43.84
41246;BME280;53880;47.526;18.986;2023-04-09T06:54:47;100408.63;;;21.16;43.96
41246;BME280;53880;47.526;18.986;2023-04-09T06:57:03;100410.34;;;21.17;44.02
41246;BME280;53880;47.526;18.986;2023-04-09T06:59:20;100408.63;;;21.16;44.24
41246;BME280;53880;47.526;18.986;2023-04-09T07:01:38;100411.19;;;21.17;44.23
41246;BME280;53880;47.526;18.986;2023-04-09T07:03:56;100412.16;;;21.16;44.08
41246;BME280;53880;47.526;18.986;2023-04-09T07:06:19;100412.31;;;21.15;44.29
41246;BME280;53880;47.526;18.986;2023-04-09T07:08:39;100415.97;;;21.14;44.30
41246;BME280;53880;47.526;18.986;2023-04-09T07:10:59;100420.66;;;21.12;44.28
41246;BME280;53880;47.526;18.986;2023-04-09T07:13:14;100427.03;;;21.11;44.46
41246;BME280;53880;47.526;18.986;2023-04-09T07:15:36;100431.69;;;21.09;44.26
41246;BME280;53880;47.526;18.986;2023-04-09T07:17:51;100430.16;;;21.06;44.26
41246;BME280;53880;47.526;18.986;2023-04-09T07:20:13;100433.13;;;21.03;44.49
41246;BME280;53880;47.526;18.986;2023-04-09T07:22:36;100431.56;;;21.01;44.62
41246;BME280;53880;47.526;18.986;2023-04-09T07:24:55;100425.66;;;20.97;44.40
41246;BME280;53880;47.526;18.986;2023-04-09T07:27:12;100430.34;;;20.95;44.39
41246;BME280;53880;47.526;18.986;2023-04-09T07:29:32;100426.28;;;20.91;44.74
41246;BME280;53880;47.526;18.986;2023-04-09T07:31:47;100436.16;;;20.91;44.48
41246;BME280;53880;47.526;18.986;2023-04-09T07:34:02;100445.31;;;20.88;44.52
41246;BME280;53880;47.526;18.986;2023-04-09T07:36:20;100436.75;;;20.85;44.71
41246;BME280;53880;47.526;18.986;2023-04-09T07:38:37;100444.78;;;20.85;44.71
41246;BME280;53880;47.526;18.986;2023-04-09T07:40:52;100437.59;;;20.85;44.77
41246;BME280;53880;47.526;18.986;2023-04-09T07:43:07;100438.28;;;20.87;44.79
41246;BME280;53880;47.526;18.986;2023-04-09T07:45:24;100438.81;;;20.91;44.53
41246;BME280;53880;47.526;18.986;2023-04-09T07:47:45;100441.91;;;20.96;44.28
41246;BME280;53880;47.526;18.986;2023-04-09T07:50:02;100437.75;;;21.01;44.30
41246;BME280;53880;47.526;18.986;2023-04-09T07:52:20;100440.72;;;21.08;44.37
41246;BME280;53880;47.526;18.986;2023-04-09T07:54:35;100445.63;;;21.12;44.10
41246;BME280;53880;47.526;18.986;2023-04-09T07:56:55;100442.31;;;21.18;44.04
41246;BME280;53880;47.526;18.986;2023-04-09T07:59:15;100443.41;;;21.25;43.90
41246;BME280;53880;47.526;18.986;2023-04-09T08:01:31;100451.84;;;21.31;43.98
41246;BME280;53880;47.526;18.986;2023-04-09T08:03:51;100448.66;;;21.35;43.99
41246;BME280;53880;47.526;18.986;2023-04-09T08:06:13;100456.41;;;21.38;43.78
41246;BME280;53880;47.526;18.986;2023-04-09T08:08:28;100438.34;;;21.40;44.11
41246;BME280;53880;47.526;18.986;2023-04-09T08:10:45;100441.88;;;21.41;44.03
41246;BME280;53880;47.526;18.986;2023-04-09T08:13:03;100448.91;;;21.42;44.11
41246;BME280;53880;47.526;18.986;2023-04-09T08:15:23;100447.91;;;21.43;44.13
41246;BME280;53880;47.526;18.986;2023-04-09T08:17:38;100451.56;;;21.42;44.22
41246;BME280;53880;47.526;18.986;2023-04-09T08:19:56;100452.59;;;21.41;44.04
41246;BME280;53880;47.526;18.986;2023-04-09T08:22:15;100453.75;;;21.38;44.21
41246;BME280;53880;47.526;18.986;2023-04-09T08:24:36;100453.91;;;21.37;44.40
41246;BME280;53880;47.526;18.986;2023-04-09T08:26:57;100455.72;;;21.36;44.37
41246;BME280;53880;47.526;18.986;2023-04-09T08:29:13;100464.06;;;21.33;44.27
41246;BME280;53880;47.526;18.986;2023-04-09T08:31:34;100459.88;;;21.31;44.34
41246;BME280;53880;47.526;18.986;2023-04-09T08:33:51;100464.53;;;21.28;44.08
41246;BME280;53880;47.526;18.986;2023-04-09T08:36:12;100462.16;;;21.25;44.41
41246;BME280;53880;47.526;18.986;2023-04-09T08:38:30;100465.13;;;21.22;44.16
41246;BME280;53880;47.526;18.986;2023-04-09T08:40:48;100465.28;;;21.21;44.20
41246;BME280;53880;47.526;18.986;2023-04-09T08:43:07;100462.09;;;21.17;44.47
41246;BME280;53880;47.526;18.986;2023-04-09T08:45:25;100470.25;;;21.16;44.55
41246;BME280;53880;47.526;18.986;2023-04-09T08:47:46;100469.56;;;21.14;44.46
41246;BME280;53880;47.526;18.986;2023-04-09T08:50:04;100472.56;;;21.11;44.32
41246;BME280;53880;47.526;18.986;2023-04-09T08:52:31;100478.06;;;21.09;44.53
41246;BME280;53880;47.526;18.986;2023-04-09T08:54:52;100484.56;;;21.07;44.65
41246;BME280;53880;47.526;18.986;2023-04-09T08:57:09;100487.41;;;21.05;44.44
41246;BME280;53880;47.526;18.986;2023-04-09T08:59:27;100487.56;;;21.04;44.45
41246;BME280;53880;47.526;18.986;2023-04-09T09:01:48;100477.09;;;21.01;44.73
41246;BME280;53880;47.526;18.986;2023-04-09T09:04:10;100481.75;;;20.99;44.57
41246;BME280;53880;47.526;18.986;2023-04-09T09:06:38;100481.75;;;20.99;44.66
41246;BME280;53880;47.526;18.986;2023-04-09T09:09:16;100489.78;;;20.99;44.47
41246;BME280;53880;47.526;18.986;2023-04-09T09:11:43;100480.78;;;21.00;44.70
41246;BME280;53880;47.526;18.986;2023-04-09T09:14:05;100489.38;;;21.03;44.69
41246;BME280;53880;47.526;18.986;2023-04-09T09:16:25;100482.72;;;21.07;44.21
41246;BME280;53880;47.526;18.986;2023-04-09T09:18:44;100488.47;;;21.12;44.02
41246;BME280;53880;47.526;18.986;2023-04-09T09:21:15;100480.00;;;21.17;44.12
41246;BME280;53880;47.526;18.986;2023-04-09T09:23:38;100490.94;;;21.23;43.88
41246;BME280;53880;47.526;18.986;2023-04-09T09:25:56;100487.66;;;21.30;43.84
41246;BME280;53880;47.526;18.986;2023-04-09T09:28:13;100482.69;;;21.35;43.69
41246;BME280;53880;47.526;18.986;2023-04-09T09:30:33;100479.56;;;21.39;43.52
41246;BME280;53880;47.526;18.986;2023-04-09T09:32:53;100483.44;;;21.45;43.70
41246;BME280;53880;47.526;18.986;2023-04-09T09:35:13;100485.16;;;21.46;43.76
41246;BME280;53880;47.526;18.986;2023-04-09T09:37:33;100483.97;;;21.48;43.78
41246;BME280;53880;47.526;18.986;2023-04-09T09:39:48;100474.09;;;21.49;44.03
41246;BME280;53880;47.526;18.986;2023-04-09T09:42:08;100487.34;;;21.50;44.03
41246;BME280;53880;47.526;18.986;2023-04-09T09:44:34;100482.84;;;21.51;44.11
41246;BME280;53880;47.526;18.986;2023-04-09T09:46:54;100477.63;;;21.49;44.14
41246;BME280;53880;47.526;18.986;2023-04-09T09:49:12;100475.13;;;21.48;44.11
41246;BME280;53880;47.526;18.986;2023-04-09T09:51:32;100470.72;;;21.47;43.83
41246;BME280;53880;47.526;18.986;2023-04-09T09:53:54;100472.72;;;21.45;43.97
41246;BME280;53880;47.526;18.986;2023-04-09T09:56:20;100474.72;;;21.43;43.88
41246;BME280;53880;47.526;18.986;2023-04-09T09:59:21;100474.03;;;21.41;43.98
41246;BME280;53880;47.526;18.986;2023-04-09T10:01:29;100477.84;;;21.38;44.25
41246;BME280;53880;47.526;18.986;2023-04-09T10:03:45;100478.16;;;21.35;44.10
41246;BME280;53880;47.526;18.986;2023-04-09T10:06:05;100473.13;;;21.32;44.11
41246;BME280;53880;47.526;18.986;2023-04-09T10:08:22;100477.91;;;21.28;44.31
41246;BME280;53880;47.526;18.986;2023-04-09T10:10:42;100475.56;;;21.25;44.40
41246;BME280;53880;47.526;18.986;2023-04-09T10:13:05;100477.56;;;21.23;44.11
41246;BME280;53880;47.526;18.986;2023-04-09T10:15:25;100478.69;;;21.21;44.32
41246;BME280;53880;47.526;18.986;2023-04-09T10:17:44;100478.84;;;21.19;44.54
41246;BME280;53880;47.526;18.986;2023-04-09T10:20:14;100472.94;;;21.16;44.62
41246;BME280;53880;47.526;18.986;2023-04-09T10:22:34;100477.59;;;21.14;44.63
41246;BME280;53880;47.526;18.986;2023-04-09T10:24:52;100474.25;;;21.12;44.52
41246;BME280;53880;47.526;18.986;2023-04-09T10:27:14;100476.22;;;21.10;44.56
41246;BME280;53880;47.526;18.986;2023-04-09T10:29:32;100473.03;;;21.06;44.50
41246;BME280;53880;47.526;18.986;2023-04-09T10:31:53;100467.78;;;21.05;44.47
41246;BME280;53880;47.526;18.986;2023-04-09T10:34:15;100471.47;;;21.04;44.36
41246;BME280;53880;47.526;18.986;2023-04-09T10:36:32;100471.72;;;21.01;44.48
41246;BME280;53880;47.526;18.986;2023-04-09T10:38:54;100477.25;;;20.99;44.34
41246;BME280;53880;47.526;18.986;2023-04-09T10:41:26;100474.72;;;20.98;44.49
41246;BME280;53880;47.526;18.986;2023-04-09T10:43:46;100475.88;;;20.95;44.78
41246;BME280;53880;47.526;18.986;2023-04-09T10:46:03;100474.03;;;20.96;44.85
41246;BME280;53880;47.526;18.986;2023-04-09T10:48:26;100472.19;;;20.96;44.73
41246;BME280;53880;47.526;18.986;2023-04-09T10:50:44;100469.22;;;20.99;44.73
41246;BME280;53880;47.526;18.986;2023-04-09T10:52:59;100466.97;;;21.04;44.63
41246;BME280;53880;47.526;18.986;2023-04-09T10:55:40;100468.19;;;21.10;44.16
41246;BME280;53880;47.526;18.986;2023-04-09T10:58:00;100469.28;;;21.17;44.29
41246;BME280;53880;47.526;18.986;2023-04-09T11:00:16;100471.06;;;21.26;43.97
41246;BME280;53880;47.526;18.986;2023-04-09T11:05:16;100479.56;;;21.39;43.80
41246;BME280;53880;47.526;18.986;2023-04-09T11:07:42;100476.25;;;21.45;43.95
41246;BME280;53880;47.526;18.986;2023-04-09T11:09:59;100472.28;;;21.49;43.85
41246;BME280;53880;47.526;18.986;2023-04-09T11:12:19;100470.97;;;21.53;43.75
41246;BME280;53880;47.526;18.986;2023-04-09T11:14:34;100464.47;;;21.56;43.60
41246;BME280;53880;47.526;18.986;2023-04-09T11:16:49;100470.66;;;21.56;43.67
41246;BME280;53880;47.526;18.986;2023-04-09T11:19:09;100466.13;;;21.57;43.93
41246;BME280;53880;47.526;18.986;2023-04-09T11:21:31;100461.63;;;21.57;43.88
41246;BME280;53880;47.526;18.986;2023-04-09T11:23:54;100462.63;;;21.56;43.96
41246;BME280;53880;47.526;18.986;2023-04-09T11:26:14;100461.78;;;21.56;43.97
41246;BME280;53880;47.526;18.986;2023-04-09T11:28:33;100467.31;;;21.54;43.89
41246;BME280;53880;47.526;18.986;2023-04-09T11:30:50;100461.09;;;21.54;44.12
41246;BME280;53880;47.526;18.986;2023-04-09T11:33:08;100460.53;;;21.50;44.05
41246;BME280;53880;47.526;18.986;2023-04-09T11:35:23;100457.16;;;21.48;44.13
41246;BME280;53880;47.526;18.986;2023-04-09T11:37:45;100464.53;;;21.46;44.23
41246;BME280;53880;47.526;18.986;2023-04-09T11:40:04;100462.97;;;21.44;44.37
41246;BME280;53880;47.526;18.986;2023-04-09T11:42:20;100464.16;;;21.41;44.19
41246;BME280;53880;47.526;18.986;2023-04-09T11:44:46;100458.13;;;21.39;44.30
41246;BME280;53880;47.526;18.986;2023-04-09T11:47:05;100460.06;;;21.37;44.28
41246;BME280;53880;47.526;18.986;2023-04-09T11:49:23;100459.56;;;21.34;44.53
41246;BME280;53880;47.526;18.986;2023-04-09T11:51:44;100459.72;;;21.32;44.40
41246;BME280;53880;47.526;18.986;2023-04-09T11:54:07;100456.34;;;21.30;44.69
41246;BME280;53880;47.526;18.986;2023-04-09T11:56:28;100452.13;;;21.27;44.73
41246;BME280;53880;47.526;18.986;2023-04-09T11:58:49;100461.16;;;21.26;44.56
41246;BME280;53880;47.526;18.986;2023-04-09T12:01:07;100455.25;;;21.23;44.52
41246;BME280;53880;47.526;18.986;2023-04-09T12:03:32;100461.75;;;21.20;44.67
41246;BME280;53880;47.526;18.986;2023-04-09T12:05:50;100456.72;;;21.17;44.55
41246;BME280;53880;47.526;18.986;2023-04-09T12:08:10;100460.38;;;21.16;44.64
41246;BME280;53880;47.526;18.986;2023-04-09T12:10:31;100457.88;;;21.15;44.76
41246;BME280;53880;47.526;18.986;2023-04-09T12:12:51;100456.34;;;21.12;44.66
41246;BME280;53880;47.526;18.986;2023-04-09T12:17:29;100456.50;;;21.11;44.80